Time;durP1;ratioP1;P1;durP2;ratioP2;P2;SDS_P1;SDS_P2;PMS_P1;PMS_P2;Temp;Humidity;BMP_temperature;BMP_pressure;BME280_temperature;BME280_humidity;BME280_pressure;Samples;Min_cycle;Max_cycle;Signal;HPM_P1;HPM_P2
2022/03/13 00:00:38;;;;;;;24.92;12.00;;;;;;;;;;5047319;28;20029;-80
2022/03/13 00:03:05;;;;;;;20.67;11.70;;;;;;;;;;5059325;28;20036;-82
2022/03/13 00:05:35;;;;;;;27.75;11.60;;;;;;;;;;5058469;28;20463;-80
2022/03/13 00:08:02;;;;;;;22.02;12.88;;;;;;;;;;5056286;28;20036;-80
2022/03/13 00:10:28;;;;;;;23.83;13.07;;;;;;;;;;5054447;28;20029;-79
2022/03/13 00:12:54;;;;;;;23.67;13.20;;;;;;;;;;5038767;28;20025;-79
2022/03/13 00:15:35;;;;;;;27.23;13.57;;;;;;;;;;5047403;28;20494;-78
2022/03/13 00:18:01;;;;;;;23.48;12.77;;;;;;;;;;5051340;28;20285;-80
2022/03/13 00:20:27;;;;;;;26.13;13.45;;;;;;;;;;5053273;28;20025;-79
2022/03/13 00:22:54;;;;;;;25.70;13.43;;;;;;;;;;5039628;28;20022;-79
2022/03/13 00:25:20;;;;;;;23.63;13.23;;;;;;;;;;5043678;28;20029;-79
2022/03/13 00:27:46;;;;;;;30.10;13.82;;;;;;;;;;5044442;28;20044;-79
2022/03/13 00:30:12;;;;;;;27.17;14.05;;;;;;;;;;5051795;28;20033;-79
2022/03/13 00:32:38;;;;;;;26.15;12.48;;;;;;;;;;5042775;28;20467;-78
2022/03/13 00:35:03;;;;;;;26.83;13.15;;;;;;;;;;5058280;28;20098;-80
2022/03/13 00:37:30;;;;;;;26.23;12.27;;;;;;;;;;5042799;28;20175;-78
2022/03/13 00:39:56;;;;;;;24.70;13.30;;;;;;;;;;5047873;28;20037;-80
2022/03/13 00:42:23;;;;;;;29.50;13.10;;;;;;;;;;5043313;28;20403;-80
2022/03/13 00:44:49;;;;;;;25.65;12.77;;;;;;;;;;5046402;28;20119;-80
2022/03/13 00:47:19;;;;;;;26.63;12.82;;;;;;;;;;5037787;28;20053;-80
2022/03/13 00:49:46;;;;;;;25.30;12.27;;;;;;;;;;5036363;28;20031;-81
2022/03/13 00:52:11;;;;;;;25.25;12.52;;;;;;;;;;5042221;28;20048;-80
2022/03/13 00:54:36;;;;;;;24.15;13.32;;;;;;;;;;5037339;28;20031;-81
2022/03/13 00:57:02;;;;;;;27.65;13.50;;;;;;;;;;5041698;28;20037;-82
2022/03/13 00:59:27;;;;;;;24.58;13.52;;;;;;;;;;5045804;28;20025;-81
2022/03/13 01:01:53;;;;;;;24.02;13.18;;;;;;;;;;5038953;28;20037;-82
2022/03/13 01:04:18;;;;;;;30.50;13.63;;;;;;;;;;5040496;28;20029;-80
2022/03/13 01:06:45;;;;;;;26.58;13.10;;;;;;;;;;5035629;28;20030;-80
2022/03/13 01:09:11;;;;;;;25.55;13.52;;;;;;;;;;5038685;28;20044;-80
2022/03/13 01:11:37;;;;;;;23.20;13.80;;;;;;;;;;5037249;28;20336;-80
2022/03/13 01:14:02;;;;;;;23.88;13.60;;;;;;;;;;5036188;28;20075;-80
2022/03/13 01:16:34;;;;;;;27.35;13.18;;;;;;;;;;5034634;28;20051;-80
2022/03/13 01:19:00;;;;;;;26.70;13.85;;;;;;;;;;5033533;28;20506;-80
2022/03/13 01:21:26;;;;;;;24.60;13.43;;;;;;;;;;5034883;28;20033;-80
2022/03/13 01:24:01;;;;;;;25.55;12.52;;;;;;;;;;5032276;28;20069;-80
2022/03/13 01:27:11;;;;;;;22.92;12.75;;;;;;;;;;5029730;28;20052;-79
2022/03/13 01:29:36;;;;;;;24.58;12.25;;;;;;;;;;5032673;28;20546;-80
2022/03/13 01:32:02;;;;;;;27.30;12.20;;;;;;;;;;5037264;28;20017;-79
2022/03/13 01:34:51;;;;;;;30.35;13.70;;;;;;;;;;5034874;28;20025;-81
2022/03/13 01:37:43;;;;;;;24.95;13.93;;;;;;;;;;5037482;28;20032;-80
2022/03/13 01:40:11;;;;;;;25.08;13.50;;;;;;;;;;5032863;28;20052;-82
2022/03/13 01:42:40;;;;;;;24.17;13.30;;;;;;;;;;5039065;28;20129;-82
2022/03/13 01:45:09;;;;;;;27.33;13.40;;;;;;;;;;5036987;28;20056;-80
2022/03/13 01:47:35;;;;;;;27.80;13.35;;;;;;;;;;5035554;28;20029;-79
2022/03/13 01:50:00;;;;;;;24.48;12.32;;;;;;;;;;5035672;28;20100;-80
2022/03/13 01:52:28;;;;;;;25.33;13.13;;;;;;;;;;5034952;28;20033;-79
2022/03/13 01:54:55;;;;;;;29.55;13.57;;;;;;;;;;5033962;28;20443;-81
2022/03/13 01:57:21;;;;;;;25.75;13.18;;;;;;;;;;5031535;28;20021;-80
2022/03/13 01:59:55;;;;;;;29.38;14.45;;;;;;;;;;5035409;28;20089;-80
2022/03/13 02:02:22;;;;;;;27.60;12.70;;;;;;;;;;5035121;28;20486;-82
2022/03/13 02:04:53;;;;;;;29.73;13.65;;;;;;;;;;5038484;28;20026;-81
2022/03/13 02:07:21;;;;;;;26.50;13.45;;;;;;;;;;5042809;28;20018;-78
2022/03/13 02:09:48;;;;;;;25.10;12.68;;;;;;;;;;5046247;28;20022;-79
2022/03/13 02:12:14;;;;;;;23.45;11.68;;;;;;;;;;5044454;28;20033;-78
2022/03/13 02:14:39;;;;;;;22.58;12.60;;;;;;;;;;5049385;28;20025;-79
2022/03/13 02:17:05;;;;;;;28.75;13.95;;;;;;;;;;5050425;28;20029;-78
2022/03/13 02:19:30;;;;;;;25.10;13.55;;;;;;;;;;5044115;28;20030;-80
2022/03/13 02:21:58;;;;;;;22.02;13.15;;;;;;;;;;5045253;28;20029;-79
2022/03/13 02:24:25;;;;;;;25.65;13.60;;;;;;;;;;5041888;28;20024;-78
2022/03/13 02:27:09;;;;;;;21.98;12.27;;;;;;;;;;5041660;28;20032;-82
2022/03/13 02:29:34;;;;;;;26.23;12.65;;;;;;;;;;5036275;28;20079;-82
2022/03/13 02:32:01;;;;;;;24.65;13.07;;;;;;;;;;5043657;28;20021;-81
2022/03/13 02:34:27;;;;;;;25.55;14.18;;;;;;;;;;5041349;28;20017;-82
2022/03/13 02:36:55;;;;;;;20.88;11.88;;;;;;;;;;5044608;28;20022;-79
2022/03/13 02:39:21;;;;;;;25.50;13.15;;;;;;;;;;5033503;28;20055;-81
2022/03/13 02:41:46;;;;;;;23.23;12.68;;;;;;;;;;5034895;28;20025;-81
2022/03/13 02:44:14;;;;;;;25.80;12.70;;;;;;;;;;5036844;28;20021;-79
2022/03/13 02:46:45;;;;;;;21.48;12.45;;;;;;;;;;5036983;28;20415;-81
2022/03/13 02:49:12;;;;;;;26.90;13.87;;;;;;;;;;5037316;28;20025;-80
2022/03/13 02:51:38;;;;;;;27.77;13.63;;;;;;;;;;5036315;28;20053;-79
2022/03/13 02:54:03;;;;;;;39.28;18.80;;;;;;;;;;5036851;28;20468;-78
2022/03/13 02:56:29;;;;;;;44.25;20.02;;;;;;;;;;5034934;28;20029;-79
2022/03/13 02:58:54;;;;;;;29.52;14.57;;;;;;;;;;5034930;28;20236;-78
2022/03/13 03:01:21;;;;;;;39.63;17.75;;;;;;;;;;5040270;28;20028;-80
2022/03/13 03:03:47;;;;;;;43.55;18.23;;;;;;;;;;5040197;28;20029;-79
2022/03/13 03:06:13;;;;;;;30.58;15.80;;;;;;;;;;5040753;28;20030;-79
2022/03/13 03:08:39;;;;;;;36.65;16.52;;;;;;;;;;5037555;28;20021;-79
2022/03/13 03:11:05;;;;;;;32.78;15.35;;;;;;;;;;5038738;28;20377;-82
2022/03/13 03:13:31;;;;;;;34.95;16.15;;;;;;;;;;5040601;28;20033;-80
2022/03/13 03:15:56;;;;;;;35.53;15.50;;;;;;;;;;5038660;28;20029;-80
2022/03/13 03:18:21;;;;;;;31.10;14.98;;;;;;;;;;5038843;28;20075;-81
2022/03/13 03:20:47;;;;;;;33.75;14.88;;;;;;;;;;5042082;28;20018;-79
2022/03/13 03:23:12;;;;;;;32.33;14.77;;;;;;;;;;5044483;28;20091;-79
2022/03/13 03:25:38;;;;;;;29.52;13.40;;;;;;;;;;5045401;28;20021;-78
2022/03/13 03:28:04;;;;;;;29.95;14.88;;;;;;;;;;5047394;28;20025;-82
2022/03/13 03:30:31;;;;;;;31.95;15.07;;;;;;;;;;5043548;28;20080;-81
2022/03/13 03:33:00;;;;;;;30.55;14.50;;;;;;;;;;5044375;28;20025;-82
2022/03/13 03:35:26;;;;;;;30.77;14.23;;;;;;;;;;5045739;28;20040;-80
2022/03/13 03:37:53;;;;;;;27.35;14.38;;;;;;;;;;5041406;28;20018;-80
2022/03/13 03:40:26;;;;;;;32.50;14.20;;;;;;;;;;5036762;28;20033;-82
2022/03/13 03:42:57;;;;;;;29.48;14.68;;;;;;;;;;5038947;28;20087;-81
2022/03/13 03:45:23;;;;;;;29.42;13.82;;;;;;;;;;5038004;28;20029;-81
2022/03/13 03:47:48;;;;;;;28.67;14.15;;;;;;;;;;5045904;28;20246;-80
2022/03/13 03:50:15;;;;;;;24.77;13.52;;;;;;;;;;5044053;28;20025;-79
2022/03/13 03:52:41;;;;;;;22.88;12.65;;;;;;;;;;5052156;28;20037;-79
2022/03/13 03:55:07;;;;;;;24.98;13.95;;;;;;;;;;5041588;28;20029;-78
2022/03/13 03:57:32;;;;;;;26.98;13.52;;;;;;;;;;5048159;28;20073;-79
2022/03/13 03:59:57;;;;;;;25.73;13.65;;;;;;;;;;5048536;28;20036;-78
2022/03/13 04:02:23;;;;;;;26.10;13.55;;;;;;;;;;5054654;28;20032;-78
2022/03/13 04:04:48;;;;;;;32.00;13.93;;;;;;;;;;5053749;28;20035;-78
2022/03/13 04:07:14;;;;;;;28.40;13.73;;;;;;;;;;5054300;28;20126;-77
2022/03/13 04:09:41;;;;;;;27.48;12.63;;;;;;;;;;5056024;28;20071;-80
2022/03/13 04:12:08;;;;;;;28.00;13.23;;;;;;;;;;5051326;28;20025;-79
2022/03/13 04:14:36;;;;;;;22.50;11.98;;;;;;;;;;5038804;28;20037;-79
2022/03/13 04:17:02;;;;;;;26.35;13.02;;;;;;;;;;5037793;28;20033;-79
2022/03/13 04:19:28;;;;;;;27.73;13.05;;;;;;;;;;5041383;28;20039;-79
2022/03/13 04:21:54;;;;;;;24.42;12.27;;;;;;;;;;5056464;28;20033;-79
2022/03/13 04:24:21;;;;;;;26.85;12.20;;;;;;;;;;5039079;28;20044;-79
2022/03/13 04:26:48;;;;;;;21.52;12.27;;;;;;;;;;5057198;28;20036;-79
2022/03/13 04:29:14;;;;;;;25.70;13.00;;;;;;;;;;5056235;28;20391;-79
2022/03/13 04:31:40;;;;;;;26.48;12.07;;;;;;;;;;5059293;28;20039;-79
2022/03/13 04:34:06;;;;;;;23.80;12.40;;;;;;;;;;5058156;28;20310;-80
2022/03/13 04:36:33;;;;;;;28.65;13.93;;;;;;;;;;5056247;28;20036;-79
2022/03/13 04:38:59;;;;;;;28.27;13.73;;;;;;;;;;5043192;28;20036;-79
2022/03/13 04:41:25;;;;;;;28.00;12.82;;;;;;;;;;5050059;28;20028;-80
2022/03/13 04:43:53;;;;;;;30.33;14.15;;;;;;;;;;5017436;28;20033;-80
2022/03/13 04:46:18;;;;;;;27.25;13.07;;;;;;;;;;5035775;28;20036;-79
2022/03/13 04:48:44;;;;;;;29.50;13.50;;;;;;;;;;5039091;28;20116;-79
2022/03/13 04:51:09;;;;;;;27.95;13.57;;;;;;;;;;5042985;28;20029;-79
2022/03/13 04:53:35;;;;;;;27.75;13.38;;;;;;;;;;5038270;28;20114;-80
2022/03/13 04:56:02;;;;;;;27.05;12.82;;;;;;;;;;5037352;28;20032;-80
2022/03/13 04:58:28;;;;;;;25.80;12.85;;;;;;;;;;5051512;28;20025;-80
2022/03/13 05:00:53;;;;;;;29.20;12.95;;;;;;;;;;5048059;28;20029;-80
2022/03/13 05:03:19;;;;;;;27.77;12.93;;;;;;;;;;5057304;28;20488;-79
2022/03/13 05:05:45;;;;;;;22.77;12.43;;;;;;;;;;5057638;28;20039;-80
2022/03/13 05:08:15;;;;;;;22.75;11.98;;;;;;;;;;5057957;28;20103;-80
2022/03/13 05:10:43;;;;;;;28.60;13.00;;;;;;;;;;5055317;28;20045;-80
2022/03/13 05:13:11;;;;;;;23.90;12.55;;;;;;;;;;5059595;28;20024;-79
2022/03/13 05:15:37;;;;;;;27.85;13.15;;;;;;;;;;5065227;28;20409;-79
2022/03/13 05:18:03;;;;;;;22.77;11.90;;;;;;;;;;5055852;28;20022;-79
2022/03/13 05:20:29;;;;;;;25.75;12.95;;;;;;;;;;5058577;28;20104;-80
2022/03/13 05:22:55;;;;;;;21.92;11.93;;;;;;;;;;5057252;28;20036;-79
2022/03/13 05:25:23;;;;;;;25.95;13.60;;;;;;;;;;5042680;28;20029;-80
2022/03/13 05:27:52;;;;;;;22.23;12.38;;;;;;;;;;5042873;28;20083;-80
2022/03/13 05:30:20;;;;;;;27.45;12.35;;;;;;;;;;5058179;28;20467;-81
2022/03/13 05:32:46;;;;;;;27.90;12.85;;;;;;;;;;5049267;28;20063;-81
2022/03/13 05:35:12;;;;;;;22.15;12.73;;;;;;;;;;5037161;28;20498;-82
2022/03/13 05:37:38;;;;;;;22.48;12.45;;;;;;;;;;5040949;28;20033;-81
2022/03/13 05:40:05;;;;;;;24.13;12.77;;;;;;;;;;5043066;28;20091;-81
2022/03/13 05:42:31;;;;;;;26.27;12.93;;;;;;;;;;5034631;28;20048;-81
2022/03/13 05:44:56;;;;;;;22.55;12.02;;;;;;;;;;5035954;28;20029;-81
2022/03/13 05:47:22;;;;;;;23.58;12.77;;;;;;;;;;5036383;28;20079;-82
2022/03/13 05:49:47;;;;;;;23.73;12.35;;;;;;;;;;5050689;28;20067;-82
2022/03/13 05:52:14;;;;;;;22.40;12.07;;;;;;;;;;5046848;28;20043;-81
2022/03/13 05:54:40;;;;;;;25.20;13.35;;;;;;;;;;5037832;28;20021;-81
2022/03/13 05:57:06;;;;;;;23.85;12.50;;;;;;;;;;5051081;28;20124;-82
2022/03/13 05:59:34;;;;;;;27.13;13.25;;;;;;;;;;5054996;28;20025;-82
2022/03/13 06:02:02;;;;;;;24.35;13.85;;;;;;;;;;5053776;28;20498;-81
2022/03/13 06:04:28;;;;;;;28.25;13.85;;;;;;;;;;5046521;28;20112;-81
2022/03/13 06:06:54;;;;;;;30.05;13.23;;;;;;;;;;5038051;28;20061;-82
2022/03/13 06:09:19;;;;;;;23.60;12.75;;;;;;;;;;5041980;28;20034;-81
2022/03/13 06:11:44;;;;;;;24.40;13.25;;;;;;;;;;5036711;28;20033;-82
2022/03/13 06:14:10;;;;;;;27.55;13.20;;;;;;;;;;5045868;28;20533;-79
2022/03/13 06:16:35;;;;;;;25.65;12.38;;;;;;;;;;5037710;28;20443;-82
2022/03/13 06:19:01;;;;;;;24.67;13.30;;;;;;;;;;5043650;28;20029;-81
2022/03/13 06:21:26;;;;;;;21.88;11.30;;;;;;;;;;5040122;28;20106;-78
2022/03/13 06:23:51;;;;;;;25.45;12.75;;;;;;;;;;5036883;28;20029;-81
2022/03/13 06:26:17;;;;;;;29.45;14.13;;;;;;;;;;5043871;28;20446;-80
2022/03/13 06:28:42;;;;;;;26.42;12.90;;;;;;;;;;5038441;28;20026;-80
2022/03/13 06:31:09;;;;;;;27.70;13.52;;;;;;;;;;5046216;28;20040;-82
2022/03/13 06:33:34;;;;;;;23.02;12.30;;;;;;;;;;5044240;28;20049;-83
2022/03/13 06:36:00;;;;;;;24.42;12.75;;;;;;;;;;5035109;28;20375;-83
2022/03/13 06:38:25;;;;;;;27.90;13.30;;;;;;;;;;5046366;28;20107;-82
2022/03/13 06:40:51;;;;;;;25.75;12.75;;;;;;;;;;5046053;28;20078;-83
2022/03/13 06:43:17;;;;;;;28.77;14.00;;;;;;;;;;5055326;28;20493;-83
2022/03/13 06:45:42;;;;;;;25.65;12.32;;;;;;;;;;5052012;28;20037;-83
2022/03/13 06:48:08;;;;;;;26.67;14.00;;;;;;;;;;5048822;28;20026;-83
2022/03/13 06:50:33;;;;;;;23.23;11.85;;;;;;;;;;5052724;28;20029;-82
2022/03/13 06:52:59;;;;;;;24.13;12.77;;;;;;;;;;5050038;28;20025;-82
2022/03/13 06:55:25;;;;;;;40.13;17.42;;;;;;;;;;5052430;28;20032;-83
2022/03/13 06:57:51;;;;;;;29.00;15.35;;;;;;;;;;5059661;28;20029;-83
2022/03/13 07:00:18;;;;;;;27.95;13.25;;;;;;;;;;5060568;28;20107;-83
2022/03/13 07:02:44;;;;;;;31.35;16.25;;;;;;;;;;5046765;28;20025;-82
2022/03/13 07:05:09;;;;;;;30.83;15.05;;;;;;;;;;5038765;28;20025;-82
2022/03/13 07:07:34;;;;;;;29.40;14.23;;;;;;;;;;5045209;28;20438;-82
2022/03/13 07:10:00;;;;;;;23.23;12.90;;;;;;;;;;5059851;28;20032;-82
2022/03/13 07:12:25;;;;;;;27.45;13.48;;;;;;;;;;5059649;28;20051;-82
2022/03/13 07:14:52;;;;;;;21.05;12.77;;;;;;;;;;5057369;28;20024;-80
2022/03/13 07:17:18;;;;;;;24.60;14.15;;;;;;;;;;5049825;28;20029;-83
2022/03/13 07:19:44;;;;;;;22.25;12.63;;;;;;;;;;5052194;28;20028;-79
2022/03/13 07:22:11;;;;;;;23.52;13.02;;;;;;;;;;5060230;28;20112;-79
2022/03/13 07:24:37;;;;;;;21.83;11.38;;;;;;;;;;5053543;28;20018;-80
2022/03/13 07:27:03;;;;;;;18.38;11.10;;;;;;;;;;5052824;28;20032;-80
2022/03/13 07:29:28;;;;;;;18.20;10.43;;;;;;;;;;5056640;28;20075;-80
2022/03/13 07:31:56;;;;;;;20.23;11.80;;;;;;;;;;5050572;28;20025;-80
2022/03/13 07:34:26;;;;;;;20.73;10.70;;;;;;;;;;5060075;28;20013;-82
2022/03/13 07:36:52;;;;;;;22.77;11.48;;;;;;;;;;5058941;28;20537;-83
2022/03/13 07:39:18;;;;;;;17.60;10.90;;;;;;;;;;5058998;28;20025;-83
2022/03/13 07:41:45;;;;;;;16.02;10.60;;;;;;;;;;5064031;28;20021;-83
2022/03/13 07:44:10;;;;;;;18.27;10.00;;;;;;;;;;5045905;28;20450;-83
2022/03/13 07:46:36;;;;;;;17.77;9.70;;;;;;;;;;5053503;28;20568;-82
2022/03/13 07:49:02;;;;;;;16.45;9.93;;;;;;;;;;5061975;28;20455;-81
2022/03/13 07:51:27;;;;;;;17.40;9.88;;;;;;;;;;5057007;28;20032;-80
2022/03/13 07:53:52;;;;;;;16.20;9.68;;;;;;;;;;5053128;28;20017;-82
2022/03/13 07:56:19;;;;;;;21.40;9.27;;;;;;;;;;5056399;28;20017;-82
2022/03/13 07:58:44;;;;;;;13.52;8.93;;;;;;;;;;5064155;28;20100;-82
2022/03/13 08:01:10;;;;;;;13.65;9.10;;;;;;;;;;5052548;28;20111;-82
2022/03/13 08:03:36;;;;;;;14.98;9.02;;;;;;;;;;5042826;28;20105;-82
2022/03/13 08:06:03;;;;;;;13.45;9.00;;;;;;;;;;5042375;28;20029;-81
2022/03/13 08:08:28;;;;;;;14.15;9.25;;;;;;;;;;5051919;28;20093;-82
2022/03/13 08:10:53;;;;;;;14.38;9.27;;;;;;;;;;5051092;28;20135;-83
2022/03/13 08:13:19;;;;;;;14.18;8.70;;;;;;;;;;5062451;28;20075;-81
2022/03/13 08:15:44;;;;;;;14.13;8.55;;;;;;;;;;5063470;28;20395;-82
2022/03/13 08:18:10;;;;;;;17.67;9.25;;;;;;;;;;5060578;28;20025;-82
2022/03/13 08:20:36;;;;;;;16.02;9.65;;;;;;;;;;5056862;28;20562;-82
2022/03/13 08:23:02;;;;;;;14.93;8.57;;;;;;;;;;5057023;28;20101;-82
2022/03/13 08:25:27;;;;;;;15.18;9.10;;;;;;;;;;5047122;28;20025;-85
2022/03/13 08:27:53;;;;;;;16.08;9.27;;;;;;;;;;5054330;28;20025;-84
2022/03/13 08:30:18;;;;;;;21.38;8.98;;;;;;;;;;5048318;28;20025;-84
2022/03/13 08:32:44;;;;;;;14.75;9.45;;;;;;;;;;5063371;28;20025;-84
2022/03/13 08:35:09;;;;;;;15.00;8.95;;;;;;;;;;5063230;28;20104;-81
2022/03/13 08:37:36;;;;;;;14.63;9.55;;;;;;;;;;5055099;28;20060;-82
2022/03/13 08:40:04;;;;;;;16.25;10.15;;;;;;;;;;5054945;28;20541;-83
2022/03/13 08:42:31;;;;;;;15.27;9.35;;;;;;;;;;5062504;28;20030;-83
2022/03/13 08:44:57;;;;;;;18.30;10.90;;;;;;;;;;5059997;28;20021;-80
2022/03/13 08:47:22;;;;;;;16.30;9.95;;;;;;;;;;5070807;28;20025;-81
2022/03/13 08:49:48;;;;;;;18.90;10.90;;;;;;;;;;5063334;28;20033;-82
2022/03/13 08:52:13;;;;;;;18.08;10.88;;;;;;;;;;5062145;28;20025;-83
2022/03/13 08:54:38;;;;;;;17.95;10.18;;;;;;;;;;5057097;28;20012;-79
2022/03/13 08:57:04;;;;;;;18.42;10.05;;;;;;;;;;5062574;28;20096;-82
2022/03/13 08:59:34;;;;;;;18.35;10.95;;;;;;;;;;5058831;28;20080;-79
2022/03/13 09:01:59;;;;;;;17.55;10.65;;;;;;;;;;5050189;28;20025;-81
2022/03/13 09:04:24;;;;;;;25.42;11.32;;;;;;;;;;5056432;28;20085;-81
2022/03/13 09:06:51;;;;;;;18.08;10.15;;;;;;;;;;5051520;28;20402;-81
2022/03/13 09:09:18;;;;;;;17.10;10.90;;;;;;;;;;5068814;28;20032;-81
2022/03/13 09:11:45;;;;;;;20.55;11.63;;;;;;;;;;5070568;28;20036;-79
2022/03/13 09:14:11;;;;;;;17.88;10.48;;;;;;;;;;5069625;28;20100;-82
2022/03/13 09:16:38;;;;;;;16.98;10.73;;;;;;;;;;5062188;28;20037;-80
2022/03/13 09:19:03;;;;;;;17.98;11.43;;;;;;;;;;5067827;28;20036;-84
2022/03/13 09:21:31;;;;;;;17.70;10.63;;;;;;;;;;5069476;28;20040;-84
2022/03/13 09:23:57;;;;;;;18.20;11.20;;;;;;;;;;5069314;28;20047;-80
2022/03/13 09:26:22;;;;;;;16.73;10.65;;;;;;;;;;5062629;28;20032;-80
2022/03/13 09:28:48;;;;;;;19.02;11.35;;;;;;;;;;5067289;28;20096;-82
2022/03/13 09:31:13;;;;;;;18.30;11.40;;;;;;;;;;5056412;28;20029;-83
2022/03/13 09:33:39;;;;;;;22.40;10.25;;;;;;;;;;5057152;28;20022;-80
2022/03/13 09:36:04;;;;;;;17.92;10.35;;;;;;;;;;5046113;28;20025;-83
2022/03/13 09:38:29;;;;;;;20.20;11.43;;;;;;;;;;5040639;28;20032;-82
2022/03/13 09:40:55;;;;;;;22.90;11.95;;;;;;;;;;5031521;28;20088;-82
2022/03/13 09:43:21;;;;;;;20.73;11.55;;;;;;;;;;5040738;28;20708;-84
2022/03/13 09:45:49;;;;;;;24.73;12.65;;;;;;;;;;5050015;28;20068;-82
2022/03/13 09:48:15;;;;;;;23.70;12.50;;;;;;;;;;5055440;28;20459;-84
2022/03/13 09:50:42;;;;;;;22.40;12.52;;;;;;;;;;5046367;28;20024;-82
2022/03/13 09:53:08;;;;;;;21.15;11.35;;;;;;;;;;5058007;28;20396;-84
2022/03/13 09:55:34;;;;;;;22.75;13.02;;;;;;;;;;5057025;28;20025;-83
2022/03/13 09:57:59;;;;;;;21.05;12.52;;;;;;;;;;5063673;28;20027;-83
2022/03/13 10:00:26;;;;;;;20.75;12.90;;;;;;;;;;5062738;28;20021;-82
2022/03/13 10:02:53;;;;;;;20.27;11.70;;;;;;;;;;5063940;28;20075;-83
2022/03/13 10:05:20;;;;;;;22.50;12.70;;;;;;;;;;5054875;28;20055;-84
2022/03/13 10:07:48;;;;;;;22.75;12.27;;;;;;;;;;5047018;28;20060;-83
2022/03/13 10:10:14;;;;;;;22.95;12.43;;;;;;;;;;5045176;28;20052;-82
2022/03/13 10:12:40;;;;;;;21.23;12.38;;;;;;;;;;5064055;28;20031;-83
2022/03/13 10:15:07;;;;;;;20.95;12.07;;;;;;;;;;5055060;28;20029;-83
2022/03/13 10:17:35;;;;;;;20.15;11.35;;;;;;;;;;5043949;28;20021;-83
2022/03/13 10:20:19;;;;;;;21.00;13.15;;;;;;;;;;5054442;28;20056;-84
2022/03/13 10:22:48;;;;;;;20.92;12.25;;;;;;;;;;5051416;28;20061;-83
2022/03/13 10:25:27;;;;;;;21.65;11.88;;;;;;;;;;5054226;28;20033;-82
2022/03/13 10:27:53;;;;;;;20.65;12.13;;;;;;;;;;5063037;28;20021;-83
2022/03/13 10:30:19;;;;;;;25.55;13.65;;;;;;;;;;5065965;28;20025;-80
2022/03/13 10:32:55;;;;;;;23.75;13.48;;;;;;;;;;5063051;28;20076;-80
2022/03/13 10:35:20;;;;;;;23.70;13.30;;;;;;;;;;5054035;28;20071;-79
2022/03/13 10:37:46;;;;;;;19.98;12.05;;;;;;;;;;5052476;28;20032;-80
2022/03/13 10:40:23;;;;;;;25.90;12.38;;;;;;;;;;5050946;28;20021;-80
2022/03/13 10:42:50;;;;;;;24.15;13.70;;;;;;;;;;5039175;28;20492;-81
2022/03/13 10:45:39;;;;;;;24.80;13.15;;;;;;;;;;5044563;28;20029;-80
2022/03/13 10:48:36;;;;;;;22.58;12.00;;;;;;;;;;5052942;28;20023;-80
2022/03/13 10:51:07;;;;;;;23.00;12.65;;;;;;;;;;5059188;28;20029;-80
2022/03/13 10:53:32;;;;;;;22.30;13.68;;;;;;;;;;5063681;28;20021;-80
2022/03/13 10:56:06;;;;;;;22.33;12.35;;;;;;;;;;5054515;28;20025;-81
2022/03/13 10:58:35;;;;;;;26.25;13.38;;;;;;;;;;5054796;28;20400;-80
2022/03/13 11:01:09;;;;;;;28.73;13.88;;;;;;;;;;5043415;28;20028;-80
2022/03/13 11:03:56;;;;;;;21.88;12.85;;;;;;;;;;5057607;28;20017;-80
2022/03/13 11:06:23;;;;;;;24.27;13.45;;;;;;;;;;5025012;28;20313;-80
2022/03/13 11:08:53;;;;;;;20.60;13.20;;;;;;;;;;5029142;28;21179;-81
2022/03/13 11:11:19;;;;;;;28.30;14.02;;;;;;;;;;5044494;28;20029;-81
2022/03/13 11:13:53;;;;;;;27.85;13.90;;;;;;;;;;5044580;28;20025;-81
2022/03/13 11:16:22;;;;;;;23.73;13.80;;;;;;;;;;5047260;28;20029;-78
2022/03/13 11:18:51;;;;;;;27.20;14.25;;;;;;;;;;5065692;28;20032;-83
2022/03/13 11:21:18;;;;;;;29.08;15.02;;;;;;;;;;5049285;28;20044;-80
2022/03/13 11:23:44;;;;;;;24.33;14.05;;;;;;;;;;5048785;28;20033;-81
2022/03/13 11:26:09;;;;;;;28.05;14.80;;;;;;;;;;5061046;28;20028;-79
2022/03/13 11:28:35;;;;;;;22.02;12.10;;;;;;;;;;5060746;28;20031;-81
2022/03/13 11:31:01;;;;;;;23.85;13.60;;;;;;;;;;5061758;28;20029;-80
2022/03/13 11:33:45;;;;;;;26.17;14.32;;;;;;;;;;5041953;28;20021;-80
2022/03/13 11:36:28;;;;;;;27.02;13.90;;;;;;;;;;5044374;28;20027;-81
2022/03/13 11:39:06;;;;;;;25.80;15.05;;;;;;;;;;5038860;28;20018;-80
2022/03/13 11:41:46;;;;;;;29.00;14.48;;;;;;;;;;5046049;28;20026;-81
2022/03/13 11:44:20;;;;;;;24.10;14.05;;;;;;;;;;5040096;28;20030;-81
2022/03/13 11:46:49;;;;;;;23.85;13.05;;;;;;;;;;5053063;28;20029;-80
2022/03/13 11:49:16;;;;;;;25.30;12.65;;;;;;;;;;5058326;28;20032;-80
2022/03/13 11:52:17;;;;;;;24.65;13.85;;;;;;;;;;5059277;28;20032;-80
2022/03/13 11:54:58;;;;;;;24.50;14.18;;;;;;;;;;4968899;28;20073;-79
2022/03/13 11:57:39;;;;;;;26.45;14.88;;;;;;;;;;5039494;28;20057;-80
2022/03/13 12:00:10;;;;;;;25.30;13.50;;;;;;;;;;5060863;28;20178;-80
2022/03/13 12:02:42;;;;;;;24.88;13.50;;;;;;;;;;5053680;28;20031;-81
2022/03/13 12:05:25;;;;;;;29.67;14.00;;;;;;;;;;5055995;28;20029;-80
2022/03/13 12:08:05;;;;;;;24.45;14.05;;;;;;;;;;5041396;28;20721;-80
2022/03/13 12:10:42;;;;;;;26.20;13.23;;;;;;;;;;5050216;28;20033;-80
2022/03/13 12:13:13;;;;;;;26.90;13.35;;;;;;;;;;5062725;28;20029;-80
2022/03/13 12:15:42;;;;;;;24.10;13.68;;;;;;;;;;5060628;28;20025;-81
2022/03/13 12:18:18;;;;;;;29.65;15.23;;;;;;;;;;5059785;28;20037;-80
2022/03/13 12:20:46;;;;;;;23.85;13.00;;;;;;;;;;5053477;28;20024;-82
2022/03/13 12:23:33;;;;;;;28.48;14.25;;;;;;;;;;5062337;28;20024;-81
2022/03/13 12:26:19;;;;;;;26.90;14.32;;;;;;;;;;5054791;28;20016;-80
2022/03/13 12:28:45;;;;;;;24.38;13.70;;;;;;;;;;5048458;28;20017;-80
2022/03/13 12:31:11;;;;;;;24.13;13.38;;;;;;;;;;5056600;28;20037;-80
2022/03/13 12:33:47;;;;;;;25.92;13.88;;;;;;;;;;5059938;28;20187;-81
2022/03/13 12:36:14;;;;;;;26.17;12.85;;;;;;;;;;5044203;28;20036;-80
2022/03/13 12:38:43;;;;;;;23.85;13.95;;;;;;;;;;5040702;28;20475;-79
2022/03/13 12:41:11;;;;;;;23.98;13.27;;;;;;;;;;5037483;28;20029;-79
2022/03/13 12:43:53;;;;;;;23.85;14.07;;;;;;;;;;5045713;28;20025;-81
2022/03/13 12:46:21;;;;;;;26.98;14.15;;;;;;;;;;5052828;28;20033;-82
2022/03/13 12:49:00;;;;;;;25.35;13.52;;;;;;;;;;5045199;28;20021;-83
2022/03/13 12:51:44;;;;;;;25.45;13.63;;;;;;;;;;5048478;28;20029;-80
2022/03/13 12:57:32;;;;;;;29.73;13.33;;;;;;;;;;5040434;28;20031;-78
2022/03/13 12:59:57;;;;;;;24.02;13.75;;;;;;;;;;5047993;28;20044;-82
2022/03/13 13:02:31;;;;;;;25.42;14.07;;;;;;;;;;5043112;28;20028;-81
2022/03/13 13:05:03;;;;;;;27.90;14.82;;;;;;;;;;5033344;28;20491;-82
2022/03/13 13:07:32;;;;;;;26.05;14.13;;;;;;;;;;5041976;28;20027;-81
2022/03/13 13:09:59;;;;;;;25.85;12.07;;;;;;;;;;5056481;28;20036;-81
2022/03/13 13:12:36;;;;;;;25.40;14.43;;;;;;;;;;5053565;28;20028;-83
2022/03/13 13:15:05;;;;;;;24.52;14.45;;;;;;;;;;5037757;28;20029;-80
2022/03/13 13:17:31;;;;;;;23.27;13.55;;;;;;;;;;5045650;28;20040;-81
2022/03/13 13:19:59;;;;;;;25.33;14.10;;;;;;;;;;5044465;28;20033;-83
2022/03/13 13:22:28;;;;;;;25.75;13.48;;;;;;;;;;5050369;28;20501;-82
2022/03/13 13:24:58;;;;;;;27.60;13.95;;;;;;;;;;5041343;28;20377;-81
2022/03/13 13:27:32;;;;;;;22.35;12.15;;;;;;;;;;5056574;28;20451;-80
2022/03/13 13:29:58;;;;;;;28.75;13.98;;;;;;;;;;5049229;28;20041;-82
2022/03/13 13:32:25;;;;;;;29.15;13.52;;;;;;;;;;5032703;28;20120;-80
2022/03/13 13:34:59;;;;;;;24.08;12.80;;;;;;;;;;5041131;28;20017;-81
2022/03/13 13:37:24;;;;;;;23.63;12.95;;;;;;;;;;5040262;28;20467;-81
2022/03/13 13:40:04;;;;;;;24.05;12.07;;;;;;;;;;5043781;28;20039;-82
2022/03/13 13:42:32;;;;;;;24.48;13.35;;;;;;;;;;5053964;28;20060;-81
2022/03/13 13:45:00;;;;;;;23.85;13.52;;;;;;;;;;5036786;28;20033;-78
2022/03/13 13:47:26;;;;;;;22.08;12.82;;;;;;;;;;5034028;28;20030;-82
2022/03/13 13:49:51;;;;;;;26.35;13.18;;;;;;;;;;5043408;28;20032;-80
2022/03/13 13:52:17;;;;;;;21.88;13.13;;;;;;;;;;5057860;28;20025;-83
2022/03/13 13:54:43;;;;;;;26.33;14.02;;;;;;;;;;5040564;28;20036;-83
2022/03/13 13:57:21;;;;;;;25.30;14.00;;;;;;;;;;5046670;28;20025;-82
2022/03/13 13:59:47;;;;;;;22.27;12.93;;;;;;;;;;5050464;28;20059;-81
2022/03/13 14:02:19;;;;;;;24.45;13.98;;;;;;;;;;5022300;28;20029;-78
2022/03/13 14:04:48;;;;;;;22.63;12.82;;;;;;;;;;5037366;28;20491;-79
2022/03/13 14:07:14;;;;;;;24.02;13.70;;;;;;;;;;5056985;28;20487;-81
2022/03/13 14:09:40;;;;;;;24.42;13.73;;;;;;;;;;5056910;28;20025;-80
2022/03/13 14:12:08;;;;;;;30.85;14.02;;;;;;;;;;5038601;28;20385;-79
2022/03/13 14:14:33;;;;;;;22.65;14.15;;;;;;;;;;5053471;28;20022;-79
2022/03/13 14:16:59;;;;;;;27.77;13.88;;;;;;;;;;5057503;28;20029;-82
2022/03/13 14:19:30;;;;;;;25.83;13.73;;;;;;;;;;5052921;28;20029;-82
2022/03/13 14:21:56;;;;;;;25.15;13.20;;;;;;;;;;5053720;28;20033;-81
2022/03/13 14:24:22;;;;;;;23.70;13.13;;;;;;;;;;5051710;28;20041;-81
2022/03/13 14:26:49;;;;;;;27.45;13.15;;;;;;;;;;5049212;28;20029;-79